sensor_id;sensor_type;location;lat;lon;timestamp;temperature;humidity
12655;DHT22;6392;44.644;11.448;2023-08-21T00:01:41;28.30;99.90
12655;DHT22;6392;44.644;11.448;2023-08-21T00:04:08;28.20;99.90
12655;DHT22;6392;44.644;11.448;2023-08-21T00:06:35;28.30;99.90
12655;DHT22;6392;44.644;11.448;2023-08-21T00:09:02;28.30;99.90
12655;DHT22;6392;44.644;11.448;2023-08-21T00:11:29;28.30;99.90
12655;DHT22;6392;44.644;11.448;2023-08-21T00:13:58;28.20;99.90
12655;DHT22;6392;44.644;11.448;2023-08-21T00:16:25;28.20;99.90
12655;DHT22;6392;44.644;11.448;2023-08-21T00:18:54;28.10;99.90
12655;DHT22;6392;44.644;11.448;2023-08-21T00:21:21;28.10;99.90
12655;DHT22;6392;44.644;11.448;2023-08-21T00:23:48;28.00;99.90
12655;DHT22;6392;44.644;11.448;2023-08-21T00:26:15;28.00;99.90
12655;DHT22;6392;44.644;11.448;2023-08-21T00:28:42;28.00;99.90
12655;DHT22;6392;44.644;11.448;2023-08-21T00:31:10;28.00;99.90
12655;DHT22;6392;44.644;11.448;2023-08-21T00:33:38;27.90;99.90
12655;DHT22;6392;44.644;11.448;2023-08-21T00:36:05;27.90;99.90
12655;DHT22;6392;44.644;11.448;2023-08-21T00:38:32;27.90;99.90
12655;DHT22;6392;44.644;11.448;2023-08-21T00:40:59;27.90;99.90
12655;DHT22;6392;44.644;11.448;2023-08-21T00:43:26;27.80;99.90
12655;DHT22;6392;44.644;11.448;2023-08-21T00:45:53;27.80;99.90
12655;DHT22;6392;44.644;11.448;2023-08-21T00:48:21;27.80;99.90
12655;DHT22;6392;44.644;11.448;2023-08-21T00:50:49;27.80;99.90
12655;DHT22;6392;44.644;11.448;2023-08-21T00:53:16;27.70;99.90
12655;DHT22;6392;44.644;11.448;2023-08-21T00:55:43;27.60;99.90
12655;DHT22;6392;44.644;11.448;2023-08-21T00:58:11;27.50;99.90
12655;DHT22;6392;44.644;11.448;2023-08-21T01:00:39;27.40;99.90
12655;DHT22;6392;44.644;11.448;2023-08-21T01:03:06;27.40;99.90
12655;DHT22;6392;44.644;11.448;2023-08-21T01:05:36;27.30;99.90
12655;DHT22;6392;44.644;11.448;2023-08-21T01:08:06;27.30;99.90
12655;DHT22;6392;44.644;11.448;2023-08-21T01:10:43;27.20;99.90
12655;DHT22;6392;44.644;11.448;2023-08-21T01:13:23;27.20;99.90
12655;DHT22;6392;44.644;11.448;2023-08-21T01:15:54;27.20;99.90
12655;DHT22;6392;44.644;11.448;2023-08-21T01:18:21;27.10;99.90
12655;DHT22;6392;44.644;11.448;2023-08-21T01:20:50;27.10;99.90
12655;DHT22;6392;44.644;11.448;2023-08-21T01:23:30;27.10;99.90
12655;DHT22;6392;44.644;11.448;2023-08-21T01:25:57;27.00;99.90
12655;DHT22;6392;44.644;11.448;2023-08-21T01:28:25;27.00;99.90
12655;DHT22;6392;44.644;11.448;2023-08-21T01:30:57;27.00;99.90
12655;DHT22;6392;44.644;11.448;2023-08-21T01:33:26;27.00;99.90
12655;DHT22;6392;44.644;11.448;2023-08-21T01:35:57;27.10;99.90
12655;DHT22;6392;44.644;11.448;2023-08-21T01:38:25;27.10;99.90
12655;DHT22;6392;44.644;11.448;2023-08-21T01:40:55;27.10;99.90
12655;DHT22;6392;44.644;11.448;2023-08-21T01:43:22;27.10;99.90
12655;DHT22;6392;44.644;11.448;2023-08-21T01:45:49;27.10;99.90
12655;DHT22;6392;44.644;11.448;2023-08-21T01:48:16;27.10;99.90
12655;DHT22;6392;44.644;11.448;2023-08-21T01:50:43;27.10;99.90
12655;DHT22;6392;44.644;11.448;2023-08-21T01:53:10;27.10;99.90
12655;DHT22;6392;44.644;11.448;2023-08-21T01:55:37;27.00;99.90
12655;DHT22;6392;44.644;11.448;2023-08-21T01:58:05;27.00;99.90
12655;DHT22;6392;44.644;11.448;2023-08-21T02:00:32;26.90;99.90
12655;DHT22;6392;44.644;11.448;2023-08-21T02:02:59;26.80;99.90
12655;DHT22;6392;44.644;11.448;2023-08-21T02:05:26;26.80;99.90
12655;DHT22;6392;44.644;11.448;2023-08-21T02:07:53;26.80;99.90
12655;DHT22;6392;44.644;11.448;2023-08-21T02:10:20;26.80;99.90
12655;DHT22;6392;44.644;11.448;2023-08-21T02:12:48;26.90;99.90
12655;DHT22;6392;44.644;11.448;2023-08-21T02:15:16;26.90;99.90
12655;DHT22;6392;44.644;11.448;2023-08-21T02:17:43;26.80;99.90
12655;DHT22;6392;44.644;11.448;2023-08-21T02:20:11;26.80;99.90
12655;DHT22;6392;44.644;11.448;2023-08-21T02:22:38;26.70;99.90
12655;DHT22;6392;44.644;11.448;2023-08-21T02:25:05;26.70;99.90
12655;DHT22;6392;44.644;11.448;2023-08-21T02:27:32;26.70;99.90
12655;DHT22;6392;44.644;11.448;2023-08-21T02:29:59;26.70;99.90
12655;DHT22;6392;44.644;11.448;2023-08-21T02:32:28;26.70;99.90
12655;DHT22;6392;44.644;11.448;2023-08-21T02:34:55;26.70;99.90
12655;DHT22;6392;44.644;11.448;2023-08-21T02:37:22;26.70;99.90
12655;DHT22;6392;44.644;11.448;2023-08-21T02:39:49;26.70;99.90
12655;DHT22;6392;44.644;11.448;2023-08-21T02:42:16;26.70;99.90
12655;DHT22;6392;44.644;11.448;2023-08-21T02:44:43;26.70;99.90
12655;DHT22;6392;44.644;11.448;2023-08-21T02:47:10;26.60;99.90
12655;DHT22;6392;44.644;11.448;2023-08-21T02:49:38;26.60;99.90
12655;DHT22;6392;44.644;11.448;2023-08-21T02:52:05;26.50;99.90
12655;DHT22;6392;44.644;11.448;2023-08-21T02:54:32;26.50;99.90
12655;DHT22;6392;44.644;11.448;2023-08-21T02:56:59;26.50;99.90
12655;DHT22;6392;44.644;11.448;2023-08-21T02:59:26;26.40;99.90
12655;DHT22;6392;44.644;11.448;2023-08-21T03:01:53;26.40;99.90
12655;DHT22;6392;44.644;11.448;2023-08-21T03:04:20;26.40;99.90
12655;DHT22;6392;44.644;11.448;2023-08-21T03:06:50;26.30;99.90
12655;DHT22;6392;44.644;11.448;2023-08-21T03:09:17;26.30;99.90
12655;DHT22;6392;44.644;11.448;2023-08-21T03:11:44;26.20;99.90
12655;DHT22;6392;44.644;11.448;2023-08-21T03:14:11;26.20;99.90
12655;DHT22;6392;44.644;11.448;2023-08-21T03:16:37;26.20;99.90
12655;DHT22;6392;44.644;11.448;2023-08-21T03:19:04;26.10;99.90
12655;DHT22;6392;44.644;11.448;2023-08-21T03:21:32;26.10;99.90
12655;DHT22;6392;44.644;11.448;2023-08-21T03:24:00;26.10;99.90
12655;DHT22;6392;44.644;11.448;2023-08-21T03:26:27;26.10;99.90
12655;DHT22;6392;44.644;11.448;2023-08-21T03:28:54;26.00;99.90
12655;DHT22;6392;44.644;11.448;2023-08-21T03:31:21;26.00;99.90
12655;DHT22;6392;44.644;11.448;2023-08-21T03:33:48;25.90;99.90
12655;DHT22;6392;44.644;11.448;2023-08-21T03:36:15;25.90;99.90
12655;DHT22;6392;44.644;11.448;2023-08-21T03:38:42;25.90;99.90
12655;DHT22;6392;44.644;11.448;2023-08-21T03:41:11;25.80;99.90
12655;DHT22;6392;44.644;11.448;2023-08-21T03:43:38;25.80;99.90
12655;DHT22;6392;44.644;11.448;2023-08-21T03:46:05;25.80;99.90
12655;DHT22;6392;44.644;11.448;2023-08-21T03:48:32;25.80;99.90
12655;DHT22;6392;44.644;11.448;2023-08-21T03:50:59;25.90;99.90
12655;DHT22;6392;44.644;11.448;2023-08-21T03:53:26;25.90;99.90
12655;DHT22;6392;44.644;11.448;2023-08-21T03:55:53;25.90;99.90
12655;DHT22;6392;44.644;11.448;2023-08-21T03:58:21;25.80;99.90
12655;DHT22;6392;44.644;11.448;2023-08-21T04:00:50;25.70;99.90
12655;DHT22;6392;44.644;11.448;2023-08-21T04:03:17;25.70;99.90
12655;DHT22;6392;44.644;11.448;2023-08-21T04:05:44;25.70;99.90
12655;DHT22;6392;44.644;11.448;2023-08-21T04:08:11;25.70;99.90
12655;DHT22;6392;44.644;11.448;2023-08-21T04:10:38;25.70;99.90
12655;DHT22;6392;44.644;11.448;2023-08-21T04:13:07;25.60;99.90
12655;DHT22;6392;44.644;11.448;2023-08-21T04:15:36;25.60;99.90
12655;DHT22;6392;44.644;11.448;2023-08-21T04:18:03;25.50;99.90
12655;DHT22;6392;44.644;11.448;2023-08-21T04:20:31;25.50;99.90
12655;DHT22;6392;44.644;11.448;2023-08-21T04:22:58;25.50;99.90
12655;DHT22;6392;44.644;11.448;2023-08-21T04:25:24;25.50;99.90
12655;DHT22;6392;44.644;11.448;2023-08-21T04:27:51;25.40;99.90
12655;DHT22;6392;44.644;11.448;2023-08-21T04:30:19;25.40;99.90
12655;DHT22;6392;44.644;11.448;2023-08-21T04:32:47;25.40;99.90
12655;DHT22;6392;44.644;11.448;2023-08-21T04:35:14;25.40;99.90
12655;DHT22;6392;44.644;11.448;2023-08-21T04:37:46;25.40;99.90
12655;DHT22;6392;44.644;11.448;2023-08-21T04:40:14;25.40;99.90
12655;DHT22;6392;44.644;11.448;2023-08-21T04:42:43;25.40;99.90
12655;DHT22;6392;44.644;11.448;2023-08-21T04:45:10;25.40;99.90
12655;DHT22;6392;44.644;11.448;2023-08-21T04:47:37;25.40;99.90
12655;DHT22;6392;44.644;11.448;2023-08-21T04:50:06;25.40;99.90
12655;DHT22;6392;44.644;11.448;2023-08-21T04:52:33;25.40;99.90
12655;DHT22;6392;44.644;11.448;2023-08-21T04:55:00;25.40;99.90
12655;DHT22;6392;44.644;11.448;2023-08-21T04:57:27;25.40;99.90
12655;DHT22;6392;44.644;11.448;2023-08-21T04:59:54;25.40;99.90
12655;DHT22;6392;44.644;11.448;2023-08-21T05:02:21;25.40;99.90
12655;DHT22;6392;44.644;11.448;2023-08-21T05:04:48;25.40;99.90
12655;DHT22;6392;44.644;11.448;2023-08-21T05:07:16;25.50;99.90
12655;DHT22;6392;44.644;11.448;2023-08-21T05:09:43;25.50;99.90
12655;DHT22;6392;44.644;11.448;2023-08-21T05:12:10;25.50;99.90
12655;DHT22;6392;44.644;11.448;2023-08-21T05:14:37;25.50;99.90
12655;DHT22;6392;44.644;11.448;2023-08-21T05:17:04;25.50;99.90
12655;DHT22;6392;44.644;11.448;2023-08-21T05:19:31;25.50;99.90
12655;DHT22;6392;44.644;11.448;2023-08-21T05:21:58;25.50;99.90
12655;DHT22;6392;44.644;11.448;2023-08-21T05:24:27;25.50;99.90
12655;DHT22;6392;44.644;11.448;2023-08-21T05:26:55;25.50;99.90
12655;DHT22;6392;44.644;11.448;2023-08-21T05:29:23;25.50;99.90
12655;DHT22;6392;44.644;11.448;2023-08-21T05:31:50;25.60;99.90
12655;DHT22;6392;44.644;11.448;2023-08-21T05:34:17;25.60;99.90
12655;DHT22;6392;44.644;11.448;2023-08-21T05:36:44;25.60;99.90
12655;DHT22;6392;44.644;11.448;2023-08-21T05:39:11;25.60;99.90
12655;DHT22;6392;44.644;11.448;2023-08-21T05:41:40;25.60;99.90
12655;DHT22;6392;44.644;11.448;2023-08-21T05:44:07;25.60;99.90
12655;DHT22;6392;44.644;11.448;2023-08-21T05:46:34;25.60;99.90
12655;DHT22;6392;44.644;11.448;2023-08-21T05:49:01;25.60;99.90
12655;DHT22;6392;44.644;11.448;2023-08-21T05:51:28;25.70;99.90
12655;DHT22;6392;44.644;11.448;2023-08-21T05:53:55;25.70;99.90
12655;DHT22;6392;44.644;11.448;2023-08-21T05:56:22;25.70;99.90
12655;DHT22;6392;44.644;11.448;2023-08-21T05:58:51;25.70;99.90
12655;DHT22;6392;44.644;11.448;2023-08-21T06:01:18;25.70;99.90
12655;DHT22;6392;44.644;11.448;2023-08-21T06:03:45;25.80;99.90
12655;DHT22;6392;44.644;11.448;2023-08-21T06:06:12;25.80;99.90
12655;DHT22;6392;44.644;11.448;2023-08-21T06:08:39;25.90;99.90
12655;DHT22;6392;44.644;11.448;2023-08-21T06:11:06;25.90;99.90
12655;DHT22;6392;44.644;11.448;2023-08-21T06:13:32;25.90;99.90
12655;DHT22;6392;44.644;11.448;2023-08-21T06:16:01;26.00;99.90
12655;DHT22;6392;44.644;11.448;2023-08-21T06:18:28;26.00;99.90
12655;DHT22;6392;44.644;11.448;2023-08-21T06:20:55;26.10;99.90
12655;DHT22;6392;44.644;11.448;2023-08-21T06:23:22;26.20;99.90
12655;DHT22;6392;44.644;11.448;2023-08-21T06:25:49;26.30;99.90
12655;DHT22;6392;44.644;11.448;2023-08-21T06:28:16;26.30;99.90
12655;DHT22;6392;44.644;11.448;2023-08-21T06:30:43;26.40;99.90
12655;DHT22;6392;44.644;11.448;2023-08-21T06:33:11;26.50;99.90
12655;DHT22;6392;44.644;11.448;2023-08-21T06:35:38;26.50;99.90
12655;DHT22;6392;44.644;11.448;2023-08-21T06:38:06;26.60;99.90
12655;DHT22;6392;44.644;11.448;2023-08-21T06:40:33;26.70;99.90
12655;DHT22;6392;44.644;11.448;2023-08-21T06:42:59;26.80;99.90
12655;DHT22;6392;44.644;11.448;2023-08-21T06:45:26;26.90;99.90
12655;DHT22;6392;44.644;11.448;2023-08-21T06:47:56;27.00;99.90
12655;DHT22;6392;44.644;11.448;2023-08-21T06:50:24;27.10;99.90
12655;DHT22;6392;44.644;11.448;2023-08-21T06:52:51;27.20;99.90
12655;DHT22;6392;44.644;11.448;2023-08-21T06:55:19;27.30;99.90
12655;DHT22;6392;44.644;11.448;2023-08-21T06:57:45;27.30;99.90
12655;DHT22;6392;44.644;11.448;2023-08-21T07:00:13;27.30;99.90
12655;DHT22;6392;44.644;11.448;2023-08-21T07:02:40;27.30;99.90
12655;DHT22;6392;44.644;11.448;2023-08-21T07:05:07;27.40;99.90
12655;DHT22;6392;44.644;11.448;2023-08-21T07:07:36;27.40;99.90
12655;DHT22;6392;44.644;11.448;2023-08-21T07:10:03;27.50;99.90
12655;DHT22;6392;44.644;11.448;2023-08-21T07:12:30;27.60;99.90
12655;DHT22;6392;44.644;11.448;2023-08-21T07:14:57;27.60;99.90
12655;DHT22;6392;44.644;11.448;2023-08-21T07:17:24;27.70;99.90
12655;DHT22;6392;44.644;11.448;2023-08-21T07:19:51;27.70;99.90
12655;DHT22;6392;44.644;11.448;2023-08-21T07:22:19;27.80;99.90
12655;DHT22;6392;44.644;11.448;2023-08-21T07:24:47;27.90;99.90
12655;DHT22;6392;44.644;11.448;2023-08-21T07:27:14;27.90;99.90
12655;DHT22;6392;44.644;11.448;2023-08-21T07:29:41;28.00;99.90
12655;DHT22;6392;44.644;11.448;2023-08-21T07:32:08;28.00;99.90
12655;DHT22;6392;44.644;11.448;2023-08-21T07:34:35;28.10;99.90
12655;DHT22;6392;44.644;11.448;2023-08-21T07:37:02;28.20;99.90
12655;DHT22;6392;44.644;11.448;2023-08-21T07:39:29;28.20;99.90
12655;DHT22;6392;44.644;11.448;2023-08-21T07:41:57;28.30;99.90
12655;DHT22;6392;44.644;11.448;2023-08-21T07:44:24;28.30;99.90
12655;DHT22;6392;44.644;11.448;2023-08-21T07:46:51;28.40;99.90
12655;DHT22;6392;44.644;11.448;2023-08-21T07:49:18;28.40;99.90
12655;DHT22;6392;44.644;11.448;2023-08-21T07:51:45;28.50;99.90
12655;DHT22;6392;44.644;11.448;2023-08-21T07:54:12;28.50;99.90
12655;DHT22;6392;44.644;11.448;2023-08-21T07:56:39;28.50;99.90
12655;DHT22;6392;44.644;11.448;2023-08-21T07:59:08;28.60;99.90
12655;DHT22;6392;44.644;11.448;2023-08-21T08:01:35;28.60;99.90
12655;DHT22;6392;44.644;11.448;2023-08-21T08:04:02;28.70;99.90
12655;DHT22;6392;44.644;11.448;2023-08-21T08:06:29;28.70;99.90
12655;DHT22;6392;44.644;11.448;2023-08-21T08:08:56;28.80;99.90
12655;DHT22;6392;44.644;11.448;2023-08-21T08:11:23;28.80;99.90
12655;DHT22;6392;44.644;11.448;2023-08-21T08:13:50;28.80;99.90
12655;DHT22;6392;44.644;11.448;2023-08-21T08:16:19;28.90;99.90
12655;DHT22;6392;44.644;11.448;2023-08-21T08:18:46;29.00;99.90
12655;DHT22;6392;44.644;11.448;2023-08-21T08:21:13;29.00;99.90
12655;DHT22;6392;44.644;11.448;2023-08-21T08:23:40;29.00;99.90
12655;DHT22;6392;44.644;11.448;2023-08-21T08:26:07;29.10;99.90
12655;DHT22;6392;44.644;11.448;2023-08-21T08:28:34;29.10;99.90
12655;DHT22;6392;44.644;11.448;2023-08-21T08:31:01;29.20;99.90
12655;DHT22;6392;44.644;11.448;2023-08-21T08:33:30;29.20;99.90
12655;DHT22;6392;44.644;11.448;2023-08-21T08:35:57;29.20;99.90
12655;DHT22;6392;44.644;11.448;2023-08-21T08:38:24;29.30;99.90
12655;DHT22;6392;44.644;11.448;2023-08-21T08:40:51;29.30;99.90
12655;DHT22;6392;44.644;11.448;2023-08-21T08:43:22;29.40;99.90
12655;DHT22;6392;44.644;11.448;2023-08-21T08:45:52;29.40;99.90
12655;DHT22;6392;44.644;11.448;2023-08-21T08:48:21;29.40;99.90
12655;DHT22;6392;44.644;11.448;2023-08-21T08:50:51;29.40;99.90
12655;DHT22;6392;44.644;11.448;2023-08-21T08:53:18;29.50;99.90
12655;DHT22;6392;44.644;11.448;2023-08-21T08:55:45;29.50;99.90
12655;DHT22;6392;44.644;11.448;2023-08-21T08:58:12;29.60;99.90
12655;DHT22;6392;44.644;11.448;2023-08-21T09:00:39;29.60;99.90
12655;DHT22;6392;44.644;11.448;2023-08-21T09:03:06;29.60;99.90
12655;DHT22;6392;44.644;11.448;2023-08-21T09:05:34;29.60;99.90
12655;DHT22;6392;44.644;11.448;2023-08-21T09:08:11;29.60;99.90
12655;DHT22;6392;44.644;11.448;2023-08-21T09:10:39;29.60;99.90
12655;DHT22;6392;44.644;11.448;2023-08-21T09:13:12;29.70;99.90
12655;DHT22;6392;44.644;11.448;2023-08-21T09:15:41;29.70;99.90
12655;DHT22;6392;44.644;11.448;2023-08-21T09:18:09;29.70;99.90
12655;DHT22;6392;44.644;11.448;2023-08-21T09:20:37;29.80;99.90
12655;DHT22;6392;44.644;11.448;2023-08-21T09:23:04;29.80;99.90
12655;DHT22;6392;44.644;11.448;2023-08-21T09:25:38;29.80;99.90
12655;DHT22;6392;44.644;11.448;2023-08-21T09:28:06;29.80;99.90
12655;DHT22;6392;44.644;11.448;2023-08-21T09:30:51;29.90;99.90
12655;DHT22;6392;44.644;11.448;2023-08-21T09:33:19;29.90;99.90
12655;DHT22;6392;44.644;11.448;2023-08-21T09:35:47;29.90;99.90
12655;DHT22;6392;44.644;11.448;2023-08-21T09:38:14;29.90;99.90
12655;DHT22;6392;44.644;11.448;2023-08-21T09:40:49;29.90;99.90
12655;DHT22;6392;44.644;11.448;2023-08-21T09:43:16;29.90;99.90
12655;DHT22;6392;44.644;11.448;2023-08-21T09:45:46;29.90;99.90
12655;DHT22;6392;44.644;11.448;2023-08-21T09:48:14;30.00;99.90
12655;DHT22;6392;44.644;11.448;2023-08-21T09:50:41;30.00;99.90
12655;DHT22;6392;44.644;11.448;2023-08-21T09:53:09;30.00;99.90
12655;DHT22;6392;44.644;11.448;2023-08-21T09:55:39;30.00;99.90
12655;DHT22;6392;44.644;11.448;2023-08-21T09:58:08;30.00;99.90
12655;DHT22;6392;44.644;11.448;2023-08-21T10:00:37;30.00;99.90
12655;DHT22;6392;44.644;11.448;2023-08-21T10:03:07;30.00;99.90
12655;DHT22;6392;44.644;11.448;2023-08-21T10:05:36;30.10;99.90
12655;DHT22;6392;44.644;11.448;2023-08-21T10:08:05;30.20;99.90
12655;DHT22;6392;44.644;11.448;2023-08-21T10:10:34;30.30;99.90
12655;DHT22;6392;44.644;11.448;2023-08-21T10:13:02;30.30;99.90
12655;DHT22;6392;44.644;11.448;2023-08-21T10:15:31;30.30;99.90
12655;DHT22;6392;44.644;11.448;2023-08-21T10:18:17;30.30;99.90
12655;DHT22;6392;44.644;11.448;2023-08-21T10:20:45;30.30;99.90
12655;DHT22;6392;44.644;11.448;2023-08-21T10:23:24;30.30;99.90
12655;DHT22;6392;44.644;11.448;2023-08-21T10:25:55;30.30;99.90
12655;DHT22;6392;44.644;11.448;2023-08-21T10:28:22;30.30;99.90
12655;DHT22;6392;44.644;11.448;2023-08-21T10:30:50;30.30;99.90
12655;DHT22;6392;44.644;11.448;2023-08-21T10:33:47;30.30;99.90
12655;DHT22;6392;44.644;11.448;2023-08-21T10:36:14;30.30;99.90
12655;DHT22;6392;44.644;11.448;2023-08-21T10:38:58;30.30;99.90
12655;DHT22;6392;44.644;11.448;2023-08-21T10:41:26;30.30;99.90
12655;DHT22;6392;44.644;11.448;2023-08-21T10:43:53;30.30;99.90
12655;DHT22;6392;44.644;11.448;2023-08-21T10:46:22;30.30;99.90
12655;DHT22;6392;44.644;11.448;2023-08-21T10:48:49;30.40;99.90
12655;DHT22;6392;44.644;11.448;2023-08-21T10:51:17;30.50;99.90
12655;DHT22;6392;44.644;11.448;2023-08-21T10:53:45;30.50;99.90
12655;DHT22;6392;44.644;11.448;2023-08-21T10:56:12;30.50;99.90
12655;DHT22;6392;44.644;11.448;2023-08-21T10:58:42;30.50;99.90
12655;DHT22;6392;44.644;11.448;2023-08-21T11:01:09;30.50;99.90
12655;DHT22;6392;44.644;11.448;2023-08-21T11:03:39;30.50;99.90
12655;DHT22;6392;44.644;11.448;2023-08-21T11:06:09;30.50;99.90
12655;DHT22;6392;44.644;11.448;2023-08-21T11:08:37;30.50;99.90
12655;DHT22;6392;44.644;11.448;2023-08-21T11:11:05;30.50;99.90
12655;DHT22;6392;44.644;11.448;2023-08-21T11:13:33;30.50;99.90
12655;DHT22;6392;44.644;11.448;2023-08-21T11:16:01;30.50;99.90
12655;DHT22;6392;44.644;11.448;2023-08-21T11:18:31;30.50;99.90
12655;DHT22;6392;44.644;11.448;2023-08-21T11:21:07;30.50;99.90
12655;DHT22;6392;44.644;11.448;2023-08-21T11:23:35;30.60;99.90
12655;DHT22;6392;44.644;11.448;2023-08-21T11:26:03;30.70;99.90
12655;DHT22;6392;44.644;11.448;2023-08-21T11:28:31;30.70;99.90
12655;DHT22;6392;44.644;11.448;2023-08-21T11:30:59;30.70;99.90
12655;DHT22;6392;44.644;11.448;2023-08-21T11:33:27;30.70;99.90
12655;DHT22;6392;44.644;11.448;2023-08-21T11:35:54;30.70;99.90
12655;DHT22;6392;44.644;11.448;2023-08-21T11:38:25;30.70;99.90
12655;DHT22;6392;44.644;11.448;2023-08-21T11:40:53;30.70;99.90
12655;DHT22;6392;44.644;11.448;2023-08-21T11:43:21;30.70;99.90
12655;DHT22;6392;44.644;11.448;2023-08-21T11:45:48;30.70;99.90
12655;DHT22;6392;44.644;11.448;2023-08-21T11:48:15;30.80;99.90
12655;DHT22;6392;44.644;11.448;2023-08-21T11:50:42;30.80;99.90
12655;DHT22;6392;44.644;11.448;2023-08-21T11:53:09;30.90;99.90
12655;DHT22;6392;44.644;11.448;2023-08-21T11:55:38;30.80;99.90
12655;DHT22;6392;44.644;11.448;2023-08-21T11:58:08;30.90;99.90
12655;DHT22;6392;44.644;11.448;2023-08-21T12:00:35;30.90;99.90
12655;DHT22;6392;44.644;11.448;2023-08-21T12:03:02;30.90;99.90
12655;DHT22;6392;44.644;11.448;2023-08-21T12:05:32;31.00;99.90
12655;DHT22;6392;44.644;11.448;2023-08-21T12:07:59;31.00;99.90
12655;DHT22;6392;44.644;11.448;2023-08-21T12:10:26;31.10;99.90
12655;DHT22;6392;44.644;11.448;2023-08-21T12:12:55;31.00;99.90
12655;DHT22;6392;44.644;11.448;2023-08-21T12:15:23;31.10;99.90
12655;DHT22;6392;44.644;11.448;2023-08-21T12:17:49;31.20;99.90
12655;DHT22;6392;44.644;11.448;2023-08-21T12:20:16;31.30;99.90
12655;DHT22;6392;44.644;11.448;2023-08-21T12:22:44;31.40;99.90
12655;DHT22;6392;44.644;11.448;2023-08-21T12:25:11;31.40;99.90
12655;DHT22;6392;44.644;11.448;2023-08-21T12:27:38;31.50;99.90
12655;DHT22;6392;44.644;11.448;2023-08-21T12:30:08;31.50;99.90
12655;DHT22;6392;44.644;11.448;2023-08-21T12:32:35;31.60;99.90
12655;DHT22;6392;44.644;11.448;2023-08-21T12:35:02;31.90;99.90
12655;DHT22;6392;44.644;11.448;2023-08-21T12:37:30;32.00;99.90
12655;DHT22;6392;44.644;11.448;2023-08-21T12:39:57;31.90;99.90
12655;DHT22;6392;44.644;11.448;2023-08-21T12:42:24;31.90;99.90
12655;DHT22;6392;44.644;11.448;2023-08-21T12:44:51;31.90;99.90
12655;DHT22;6392;44.644;11.448;2023-08-21T12:47:19;32.00;99.90
12655;DHT22;6392;44.644;11.448;2023-08-21T12:49:46;32.00;99.90
12655;DHT22;6392;44.644;11.448;2023-08-21T12:52:13;32.00;99.90
12655;DHT22;6392;44.644;11.448;2023-08-21T12:54:40;32.00;99.90
12655;DHT22;6392;44.644;11.448;2023-08-21T12:57:08;32.00;99.90
12655;DHT22;6392;44.644;11.448;2023-08-21T12:59:37;32.10;99.90
12655;DHT22;6392;44.644;11.448;2023-08-21T13:02:04;32.20;99.90
12655;DHT22;6392;44.644;11.448;2023-08-21T13:04:32;32.20;99.90
12655;DHT22;6392;44.644;11.448;2023-08-21T13:06:59;32.20;99.90
12655;DHT22;6392;44.644;11.448;2023-08-21T13:09:26;32.40;99.90
12655;DHT22;6392;44.644;11.448;2023-08-21T13:11:54;32.50;99.90
12655;DHT22;6392;44.644;11.448;2023-08-21T13:14:21;32.70;99.90
12655;DHT22;6392;44.644;11.448;2023-08-21T13:16:48;32.80;99.90
12655;DHT22;6392;44.644;11.448;2023-08-21T13:19:15;32.80;99.90
12655;DHT22;6392;44.644;11.448;2023-08-21T13:21:44;32.70;99.90
12655;DHT22;6392;44.644;11.448;2023-08-21T13:24:10;32.70;99.90
12655;DHT22;6392;44.644;11.448;2023-08-21T13:26:37;32.80;99.90
12655;DHT22;6392;44.644;11.448;2023-08-21T13:29:04;32.90;99.90
12655;DHT22;6392;44.644;11.448;2023-08-21T13:31:33;32.90;99.90
12655;DHT22;6392;44.644;11.448;2023-08-21T13:34:00;33.00;99.90
12655;DHT22;6392;44.644;11.448;2023-08-21T13:36:27;33.00;99.90
12655;DHT22;6392;44.644;11.448;2023-08-21T13:38:55;33.10;99.90
12655;DHT22;6392;44.644;11.448;2023-08-21T13:41:22;33.10;99.90
12655;DHT22;6392;44.644;11.448;2023-08-21T13:43:49;33.10;99.90
12655;DHT22;6392;44.644;11.448;2023-08-21T13:46:16;33.10;99.90
12655;DHT22;6392;44.644;11.448;2023-08-21T13:48:43;33.20;99.90
12655;DHT22;6392;44.644;11.448;2023-08-21T13:51:10;33.20;99.90
12655;DHT22;6392;44.644;11.448;2023-08-21T13:53:37;33.40;99.90
12655;DHT22;6392;44.644;11.448;2023-08-21T13:56:06;33.50;99.90
12655;DHT22;6392;44.644;11.448;2023-08-21T13:58:33;33.50;99.90
12655;DHT22;6392;44.644;11.448;2023-08-21T14:01:00;33.50;99.90
12655;DHT22;6392;44.644;11.448;2023-08-21T14:03:27;33.50;99.90
12655;DHT22;6392;44.644;11.448;2023-08-21T14:05:54;33.50;99.90
12655;DHT22;6392;44.644;11.448;2023-08-21T14:08:21;33.50;99.90
12655;DHT22;6392;44.644;11.448;2023-08-21T14:10:48;33.60;99.90
12655;DHT22;6392;44.644;11.448;2023-08-21T14:13:17;33.60;99.90
12655;DHT22;6392;44.644;11.448;2023-08-21T14:15:43;33.60;99.90
12655;DHT22;6392;44.644;11.448;2023-08-21T14:18:11;33.70;99.90
12655;DHT22;6392;44.644;11.448;2023-08-21T14:20:38;33.70;99.90
12655;DHT22;6392;44.644;11.448;2023-08-21T14:23:05;33.70;99.90
12655;DHT22;6392;44.644;11.448;2023-08-21T14:25:33;33.80;99.90
12655;DHT22;6392;44.644;11.448;2023-08-21T14:28:00;33.90;99.90
12655;DHT22;6392;44.644;11.448;2023-08-21T14:30:28;34.00;99.90
12655;DHT22;6392;44.644;11.448;2023-08-21T14:32:56;34.00;99.90
12655;DHT22;6392;44.644;11.448;2023-08-21T14:35:23;34.00;99.90
12655;DHT22;6392;44.644;11.448;2023-08-21T14:37:50;34.10;99.90
12655;DHT22;6392;44.644;11.448;2023-08-21T14:40:16;34.20;99.90
12655;DHT22;6392;44.644;11.448;2023-08-21T14:42:43;34.20;99.90
12655;DHT22;6392;44.644;11.448;2023-08-21T14:45:10;34.40;99.90
12655;DHT22;6392;44.644;11.448;2023-08-21T14:47:39;34.50;99.90
12655;DHT22;6392;44.644;11.448;2023-08-21T14:50:06;34.50;99.90
12655;DHT22;6392;44.644;11.448;2023-08-21T14:52:34;34.50;99.90
12655;DHT22;6392;44.644;11.448;2023-08-21T14:55:01;34.50;99.90
12655;DHT22;6392;44.644;11.448;2023-08-21T14:57:27;34.70;99.90
12655;DHT22;6392;44.644;11.448;2023-08-21T14:59:55;34.70;99.90
12655;DHT22;6392;44.644;11.448;2023-08-21T15:02:22;34.90;99.90
12655;DHT22;6392;44.644;11.448;2023-08-21T15:04:50;34.90;99.90
12655;DHT22;6392;44.644;11.448;2023-08-21T15:07:17;34.90;99.90
12655;DHT22;6392;44.644;11.448;2023-08-21T15:09:44;35.00;99.90
12655;DHT22;6392;44.644;11.448;2023-08-21T15:12:11;35.20;99.90
12655;DHT22;6392;44.644;11.448;2023-08-21T15:14:38;35.60;99.90
12655;DHT22;6392;44.644;11.448;2023-08-21T15:17:05;35.70;99.90
12655;DHT22;6392;44.644;11.448;2023-08-21T15:19:32;35.70;99.90
12655;DHT22;6392;44.644;11.448;2023-08-21T15:22:00;35.70;99.90
12655;DHT22;6392;44.644;11.448;2023-08-21T15:24:27;35.80;99.90
12655;DHT22;6392;44.644;11.448;2023-08-21T15:26:55;36.00;99.90
12655;DHT22;6392;44.644;11.448;2023-08-21T15:29:22;36.00;99.90
12655;DHT22;6392;44.644;11.448;2023-08-21T15:31:49;35.80;99.90
12655;DHT22;6392;44.644;11.448;2023-08-21T15:34:16;35.80;99.90